Terminal Aerodrome Forecast
Issued by NWS Shreveport, LA

Home | Current Version | Previous Version | Text Only | Print | Product List | Glossary On
Versions: 1 2 3 4 5 6 7 8 9 10 11 12 13 14 15 16 17 18 19 20 21
902
FTUS44 KSHV 030532
TAFLFK
TAF
KLFK 030532Z 0306/0406 34005KT P6SM BKN110
     FM030900 34005KT P6SM SCT110
     FM031500 35008KT P6SM SKC
     FM031800 35007KT P6SM SKC
     FM040000 34004KT P6SM SKC=

USA.gov is the U.S. government's official web portal to all federal, state and local government web resources and services.